Ellsworth, Ohio
Current Conditions -  °F | °C
As of 5:20 PM on Tuesday 21 Oct 2014 (Local Time) from KYNG Reporting Station
Light Rain Light Rain  
Wind Chill: 43°   Ceiling: 500
Heat Index: 47°   Visibility: 2.5mi
Dew Point: 45°   Wind: 9mph
Humidity: 93%   Direction: 300°WNW
Pressure: 29.96"   Gusts: NA
Location:  41.02°N, 80.86°W
Report Text: KYNG 212120Z 30008KT 2 1/2SM -RA BR OVC005 08/07 A2996 RMK AO2 P0000 T00830072
Loading
Personal Weather Stations






























Interactive Weather Map
Tropical Storm Tracking
New forecast layout! Learn more

10-Day Weather Forecast

Advertisements
Track Severe Weather on mobile